Saltford, United Kingdom
Current Conditions -  °F | °C
As of 11:50 PM on Friday 24 Oct 2014 (Local Time) from EGGD Reporting Station
Overcast Overcast  
Wind Chill: 10°   Ceiling: 3400
Heat Index: 10°   Visibility: 6mi
Dew Point:   Wind: 5mph
Humidity: 82%   Direction: 230°SW
Pressure: 30"   Gusts: NA
Location:  51.4°N, 2.46°W
Report Text: EGGD 242250Z 23004KT 9999 OVC034 10/07 Q1016
Loading
Personal Weather Stations






























Interactive Weather Map
Tropical Storm Tracking
New forecast layout! Learn more

10-Day Weather Forecast

Advertisements
Track Severe Weather on mobile